sensor_id;sensor_type;location;lat;lon;timestamp;temperature;humidity
14359;DHT22;7263;49.418;11.064;2023-06-26T00:01:47;17.70;99.90
14359;DHT22;7263;49.418;11.064;2023-06-26T00:04:18;17.60;99.90
14359;DHT22;7263;49.418;11.064;2023-06-26T00:16:40;17.20;99.90
14359;DHT22;7263;49.418;11.064;2023-06-26T00:19:16;17.20;99.90
14359;DHT22;7263;49.418;11.064;2023-06-26T00:21:46;17.20;99.90
14359;DHT22;7263;49.418;11.064;2023-06-26T00:26:49;17.00;99.90
14359;DHT22;7263;49.418;11.064;2023-06-26T00:29:19;16.90;99.90
14359;DHT22;7263;49.418;11.064;2023-06-26T00:31:48;17.00;99.90
14359;DHT22;7263;49.418;11.064;2023-06-26T00:36:46;16.90;99.90
14359;DHT22;7263;49.418;11.064;2023-06-26T00:39:19;16.90;99.90
14359;DHT22;7263;49.418;11.064;2023-06-26T00:44:19;16.80;99.90
14359;DHT22;7263;49.418;11.064;2023-06-26T00:51:46;16.70;99.90
14359;DHT22;7263;49.418;11.064;2023-06-26T00:56:45;16.60;99.90
14359;DHT22;7263;49.418;11.064;2023-06-26T00:59:15;16.60;99.90
14359;DHT22;7263;49.418;11.064;2023-06-26T01:04:25;16.50;99.90
14359;DHT22;7263;49.418;11.064;2023-06-26T01:07:02;18.00;99.90
14359;DHT22;7263;49.418;11.064;2023-06-26T01:09:34;16.60;99.90
14359;DHT22;7263;49.418;11.064;2023-06-26T01:14:28;16.60;99.90
14359;DHT22;7263;49.418;11.064;2023-06-26T01:19:27;16.60;99.90
14359;DHT22;7263;49.418;11.064;2023-06-26T01:22:10;16.60;99.90
14359;DHT22;7263;49.418;11.064;2023-06-26T01:24:53;16.50;99.90
14359;DHT22;7263;49.418;11.064;2023-06-26T01:27:24;16.50;99.90
14359;DHT22;7263;49.418;11.064;2023-06-26T01:29:54;16.50;99.90
14359;DHT22;7263;49.418;11.064;2023-06-26T01:32:22;16.40;99.90
14359;DHT22;7263;49.418;11.064;2023-06-26T01:34:58;16.30;99.90
14359;DHT22;7263;49.418;11.064;2023-06-26T01:40:00;16.30;99.90
14359;DHT22;7263;49.418;11.064;2023-06-26T01:45:12;16.20;99.90
14359;DHT22;7263;49.418;11.064;2023-06-26T01:47:41;16.10;99.90
14359;DHT22;7263;49.418;11.064;2023-06-26T01:50:17;16.10;99.90
14359;DHT22;7263;49.418;11.064;2023-06-26T01:52:52;16.00;99.90
14359;DHT22;7263;49.418;11.064;2023-06-26T01:55:30;16.00;99.90
14359;DHT22;7263;49.418;11.064;2023-06-26T01:58:06;16.00;99.90
14359;DHT22;7263;49.418;11.064;2023-06-26T02:00:36;15.90;99.90
14359;DHT22;7263;49.418;11.064;2023-06-26T02:03:05;15.90;99.90
14359;DHT22;7263;49.418;11.064;2023-06-26T02:08:02;15.80;99.90
14359;DHT22;7263;49.418;11.064;2023-06-26T02:10:34;15.80;99.90
14359;DHT22;7263;49.418;11.064;2023-06-26T02:13:10;15.70;99.90
14359;DHT22;7263;49.418;11.064;2023-06-26T02:28:24;15.60;99.90
14359;DHT22;7263;49.418;11.064;2023-06-26T02:33:36;15.50;99.90
14359;DHT22;7263;49.418;11.064;2023-06-26T02:36:08;15.50;99.90
14359;DHT22;7263;49.418;11.064;2023-06-26T02:43:33;15.40;99.90
14359;DHT22;7263;49.418;11.064;2023-06-26T02:46:02;15.40;99.90
14359;DHT22;7263;49.418;11.064;2023-06-26T02:50:56;15.30;99.90
14359;DHT22;7263;49.418;11.064;2023-06-26T02:58:25;15.30;99.90
14359;DHT22;7263;49.418;11.064;2023-06-26T03:00:53;15.30;99.90
14359;DHT22;7263;49.418;11.064;2023-06-26T03:05:55;15.20;99.90
14359;DHT22;7263;49.418;11.064;2023-06-26T03:08:31;15.30;99.90
14359;DHT22;7263;49.418;11.064;2023-06-26T03:11:03;15.20;99.90
14359;DHT22;7263;49.418;11.064;2023-06-26T03:16:31;15.10;99.90
14359;DHT22;7263;49.418;11.064;2023-06-26T03:21:33;15.20;99.90
14359;DHT22;7263;49.418;11.064;2023-06-26T03:31:32;15.20;99.90
14359;DHT22;7263;49.418;11.064;2023-06-26T03:34:01;15.20;99.90
14359;DHT22;7263;49.418;11.064;2023-06-26T03:46:37;15.30;99.90
14359;DHT22;7263;49.418;11.064;2023-06-26T03:49:11;15.30;99.90
14359;DHT22;7263;49.418;11.064;2023-06-26T03:54:10;15.40;99.90
14359;DHT22;7263;49.418;11.064;2023-06-26T04:01:47;15.70;99.90
14359;DHT22;7263;49.418;11.064;2023-06-26T04:04:17;15.90;99.90
14359;DHT22;7263;49.418;11.064;2023-06-26T04:06:47;16.10;99.90
14359;DHT22;7263;49.418;11.064;2023-06-26T04:11:41;16.40;99.90
14359;DHT22;7263;49.418;11.064;2023-06-26T04:16:34;16.80;99.90
14359;DHT22;7263;49.418;11.064;2023-06-26T04:19:03;17.00;99.90
14359;DHT22;7263;49.418;11.064;2023-06-26T04:29:13;17.60;99.90
14359;DHT22;7263;49.418;11.064;2023-06-26T04:31:54;17.70;99.90
14359;DHT22;7263;49.418;11.064;2023-06-26T04:34:27;18.00;99.90
14359;DHT22;7263;49.418;11.064;2023-06-26T04:39:28;18.50;99.90
14359;DHT22;7263;49.418;11.064;2023-06-26T04:41:59;18.70;99.90
14359;DHT22;7263;49.418;11.064;2023-06-26T04:44:26;18.90;99.90
14359;DHT22;7263;49.418;11.064;2023-06-26T04:46:56;19.00;99.90
14359;DHT22;7263;49.418;11.064;2023-06-26T04:49:27;19.10;99.90
14359;DHT22;7263;49.418;11.064;2023-06-26T04:51:56;19.10;99.90
14359;DHT22;7263;49.418;11.064;2023-06-26T04:57:02;19.10;99.90
14359;DHT22;7263;49.418;11.064;2023-06-26T04:59:32;19.20;99.90
14359;DHT22;7263;49.418;11.064;2023-06-26T05:02:02;19.30;99.90
14359;DHT22;7263;49.418;11.064;2023-06-26T05:04:31;19.30;99.90
14359;DHT22;7263;49.418;11.064;2023-06-26T05:12:05;19.80;99.90
14359;DHT22;7263;49.418;11.064;2023-06-26T05:14:35;20.00;99.90
14359;DHT22;7263;49.418;11.064;2023-06-26T05:17:04;20.10;99.90
14359;DHT22;7263;49.418;11.064;2023-06-26T05:19:36;20.10;99.90
14359;DHT22;7263;49.418;11.064;2023-06-26T05:22:10;20.10;99.90
14359;DHT22;7263;49.418;11.064;2023-06-26T05:24:39;20.30;99.90
14359;DHT22;7263;49.418;11.064;2023-06-26T05:27:12;20.50;99.90
14359;DHT22;7263;49.418;11.064;2023-06-26T05:32:16;20.80;99.90
14359;DHT22;7263;49.418;11.064;2023-06-26T05:34:54;20.80;99.90
14359;DHT22;7263;49.418;11.064;2023-06-26T05:37:23;21.00;99.90
14359;DHT22;7263;49.418;11.064;2023-06-26T05:39:52;21.20;99.90
14359;DHT22;7263;49.418;11.064;2023-06-26T05:42:19;21.40;99.90
14359;DHT22;7263;49.418;11.064;2023-06-26T05:44:46;21.50;99.90
14359;DHT22;7263;49.418;11.064;2023-06-26T05:47:16;21.50;99.90
14359;DHT22;7263;49.418;11.064;2023-06-26T05:49:47;21.50;99.90
14359;DHT22;7263;49.418;11.064;2023-06-26T05:52:14;21.70;99.90
14359;DHT22;7263;49.418;11.064;2023-06-26T05:54:42;22.00;99.90
14359;DHT22;7263;49.418;11.064;2023-06-26T05:57:10;22.20;99.90
14359;DHT22;7263;49.418;11.064;2023-06-26T05:59:40;22.30;99.90
14359;DHT22;7263;49.418;11.064;2023-06-26T06:04:39;22.60;99.90
14359;DHT22;7263;49.418;11.064;2023-06-26T06:07:07;22.70;99.90
14359;DHT22;7263;49.418;11.064;2023-06-26T06:09:39;22.90;99.90
14359;DHT22;7263;49.418;11.064;2023-06-26T06:12:07;23.30;99.90
14359;DHT22;7263;49.418;11.064;2023-06-26T06:14:42;23.70;99.90
14359;DHT22;7263;49.418;11.064;2023-06-26T06:17:12;24.00;99.90
14359;DHT22;7263;49.418;11.064;2023-06-26T06:22:15;23.90;99.90
14359;DHT22;7263;49.418;11.064;2023-06-26T06:24:43;23.80;99.90
14359;DHT22;7263;49.418;11.064;2023-06-26T06:29:50;23.20;99.90
14359;DHT22;7263;49.418;11.064;2023-06-26T06:32:17;23.00;99.90
14359;DHT22;7263;49.418;11.064;2023-06-26T06:37:27;23.40;99.90
14359;DHT22;7263;49.418;11.064;2023-06-26T06:40:01;23.60;99.90
14359;DHT22;7263;49.418;11.064;2023-06-26T06:42:35;24.10;99.90
14359;DHT22;7263;49.418;11.064;2023-06-26T06:45:02;24.60;99.90
14359;DHT22;7263;49.418;11.064;2023-06-26T06:50:00;25.00;99.90
14359;DHT22;7263;49.418;11.064;2023-06-26T06:52:38;25.40;99.90
14359;DHT22;7263;49.418;11.064;2023-06-26T06:55:13;26.00;99.90
14359;DHT22;7263;49.418;11.064;2023-06-26T06:57:41;26.10;99.90
14359;DHT22;7263;49.418;11.064;2023-06-26T07:00:09;26.70;99.90
14359;DHT22;7263;49.418;11.064;2023-06-26T07:02:37;27.30;99.90
14359;DHT22;7263;49.418;11.064;2023-06-26T07:05:04;26.40;99.90
14359;DHT22;7263;49.418;11.064;2023-06-26T07:07:32;25.90;99.90
14359;DHT22;7263;49.418;11.064;2023-06-26T07:10:10;25.80;99.90
14359;DHT22;7263;49.418;11.064;2023-06-26T07:12:38;25.60;99.90
14359;DHT22;7263;49.418;11.064;2023-06-26T07:15:06;25.80;99.90
14359;DHT22;7263;49.418;11.064;2023-06-26T07:17:33;25.90;99.90
14359;DHT22;7263;49.418;11.064;2023-06-26T07:20:05;25.90;99.90
14359;DHT22;7263;49.418;11.064;2023-06-26T07:22:33;26.10;99.90
14359;DHT22;7263;49.418;11.064;2023-06-26T07:25:01;26.40;99.80
14359;DHT22;7263;49.418;11.064;2023-06-26T07:27:32;26.00;99.90
14359;DHT22;7263;49.418;11.064;2023-06-26T07:29:59;26.60;99.90
14359;DHT22;7263;49.418;11.064;2023-06-26T07:32:28;26.90;99.40
14359;DHT22;7263;49.418;11.064;2023-06-26T07:35:01;27.60;98.80
14359;DHT22;7263;49.418;11.064;2023-06-26T07:37:28;27.60;99.20
14359;DHT22;7263;49.418;11.064;2023-06-26T07:39:55;28.20;98.80
14359;DHT22;7263;49.418;11.064;2023-06-26T07:42:35;28.70;97.00
14359;DHT22;7263;49.418;11.064;2023-06-26T07:45:11;28.40;96.40
14359;DHT22;7263;49.418;11.064;2023-06-26T07:47:38;28.40;97.10
14359;DHT22;7263;49.418;11.064;2023-06-26T07:50:17;28.80;97.10
14359;DHT22;7263;49.418;11.064;2023-06-26T07:52:50;29.40;96.70
14359;DHT22;7263;49.418;11.064;2023-06-26T07:55:21;29.70;95.40
14359;DHT22;7263;49.418;11.064;2023-06-26T07:57:53;29.60;94.90
14359;DHT22;7263;49.418;11.064;2023-06-26T08:00:30;29.90;95.50
14359;DHT22;7263;49.418;11.064;2023-06-26T08:02:59;30.30;94.90
14359;DHT22;7263;49.418;11.064;2023-06-26T08:05:29;30.50;94.10
14359;DHT22;7263;49.418;11.064;2023-06-26T08:07:58;30.70;94.40
14359;DHT22;7263;49.418;11.064;2023-06-26T08:10:27;31.10;94.50
14359;DHT22;7263;49.418;11.064;2023-06-26T08:12:55;31.20;92.50
14359;DHT22;7263;49.418;11.064;2023-06-26T08:15:22;31.10;94.20
14359;DHT22;7263;49.418;11.064;2023-06-26T08:17:54;31.30;93.00
14359;DHT22;7263;49.418;11.064;2023-06-26T08:20:23;31.50;91.80
14359;DHT22;7263;49.418;11.064;2023-06-26T08:22:50;31.30;93.00
14359;DHT22;7263;49.418;11.064;2023-06-26T08:25:29;31.60;92.90
14359;DHT22;7263;49.418;11.064;2023-06-26T08:28:06;31.30;91.10
14359;DHT22;7263;49.418;11.064;2023-06-26T08:30:33;30.90;91.60
14359;DHT22;7263;49.418;11.064;2023-06-26T08:33:00;30.80;91.40
14359;DHT22;7263;49.418;11.064;2023-06-26T08:35:26;31.10;91.10
14359;DHT22;7263;49.418;11.064;2023-06-26T08:37:59;31.20;90.00
14359;DHT22;7263;49.418;11.064;2023-06-26T08:40:26;31.60;91.10
14359;DHT22;7263;49.418;11.064;2023-06-26T08:42:53;31.60;90.30
14359;DHT22;7263;49.418;11.064;2023-06-26T08:45:24;31.00;88.80
14359;DHT22;7263;49.418;11.064;2023-06-26T08:47:59;30.80;90.40
14359;DHT22;7263;49.418;11.064;2023-06-26T08:50:29;30.70;90.00
14359;DHT22;7263;49.418;11.064;2023-06-26T08:53:04;30.90;90.20
14359;DHT22;7263;49.418;11.064;2023-06-26T08:55:38;31.30;90.10
14359;DHT22;7263;49.418;11.064;2023-06-26T09:00:39;31.10;89.60
14359;DHT22;7263;49.418;11.064;2023-06-26T09:03:06;31.60;90.20
14359;DHT22;7263;49.418;11.064;2023-06-26T09:05:35;32.20;88.60
14359;DHT22;7263;49.418;11.064;2023-06-26T09:08:01;32.80;86.80
14359;DHT22;7263;49.418;11.064;2023-06-26T09:10:36;33.40;87.70
14359;DHT22;7263;49.418;11.064;2023-06-26T09:13:03;33.70;86.20
14359;DHT22;7263;49.418;11.064;2023-06-26T09:15:38;34.10;85.10
14359;DHT22;7263;49.418;11.064;2023-06-26T09:18:17;34.50;82.40
14359;DHT22;7263;49.418;11.064;2023-06-26T09:20:45;34.60;79.90
14359;DHT22;7263;49.418;11.064;2023-06-26T09:23:12;34.80;83.10
14359;DHT22;7263;49.418;11.064;2023-06-26T09:25:47;34.90;79.80
14359;DHT22;7263;49.418;11.064;2023-06-26T09:28:19;34.80;80.20
14359;DHT22;7263;49.418;11.064;2023-06-26T09:30:47;35.00;81.20
14359;DHT22;7263;49.418;11.064;2023-06-26T09:33:27;35.20;79.80
14359;DHT22;7263;49.418;11.064;2023-06-26T09:36:05;35.20;79.20
14359;DHT22;7263;49.418;11.064;2023-06-26T09:38:41;35.20;80.00
14359;DHT22;7263;49.418;11.064;2023-06-26T09:41:21;35.40;81.20
14359;DHT22;7263;49.418;11.064;2023-06-26T09:43:48;35.50;80.30
14359;DHT22;7263;49.418;11.064;2023-06-26T09:46:24;35.60;78.20
14359;DHT22;7263;49.418;11.064;2023-06-26T09:48:58;35.60;78.60
14359;DHT22;7263;49.418;11.064;2023-06-26T09:51:40;35.50;77.30
14359;DHT22;7263;49.418;11.064;2023-06-26T09:54:15;35.40;78.60
14359;DHT22;7263;49.418;11.064;2023-06-26T09:56:45;35.60;77.50
14359;DHT22;7263;49.418;11.064;2023-06-26T09:59:15;35.40;77.10
14359;DHT22;7263;49.418;11.064;2023-06-26T10:02:02;35.30;76.90
14359;DHT22;7263;49.418;11.064;2023-06-26T10:04:39;35.40;76.80
14359;DHT22;7263;49.418;11.064;2023-06-26T10:07:11;35.50;74.20
14359;DHT22;7263;49.418;11.064;2023-06-26T10:09:41;37.70;78.90
14359;DHT22;7263;49.418;11.064;2023-06-26T10:12:16;35.60;75.90
14359;DHT22;7263;49.418;11.064;2023-06-26T10:14:50;35.60;74.90
14359;DHT22;7263;49.418;11.064;2023-06-26T10:17:20;35.40;73.80
14359;DHT22;7263;49.418;11.064;2023-06-26T10:19:48;35.40;73.60
14359;DHT22;7263;49.418;11.064;2023-06-26T10:22:20;35.30;74.10
14359;DHT22;7263;49.418;11.064;2023-06-26T10:24:55;35.40;75.10
14359;DHT22;7263;49.418;11.064;2023-06-26T10:27:29;35.50;73.40
14359;DHT22;7263;49.418;11.064;2023-06-26T10:30:16;35.60;74.40
14359;DHT22;7263;49.418;11.064;2023-06-26T10:32:47;35.90;74.70
14359;DHT22;7263;49.418;11.064;2023-06-26T10:35:17;36.00;72.70
14359;DHT22;7263;49.418;11.064;2023-06-26T10:37:50;36.00;74.00
14359;DHT22;7263;49.418;11.064;2023-06-26T10:40:26;36.10;73.60
14359;DHT22;7263;49.418;11.064;2023-06-26T10:43:09;35.90;71.80
14359;DHT22;7263;49.418;11.064;2023-06-26T10:45:37;35.60;73.20
14359;DHT22;7263;49.418;11.064;2023-06-26T10:48:35;35.50;72.90
14359;DHT22;7263;49.418;11.064;2023-06-26T10:51:18;35.60;74.40
14359;DHT22;7263;49.418;11.064;2023-06-26T10:54:01;35.50;73.80
14359;DHT22;7263;49.418;11.064;2023-06-26T10:56:44;35.50;72.60
14359;DHT22;7263;49.418;11.064;2023-06-26T10:59:19;35.50;72.60
14359;DHT22;7263;49.418;11.064;2023-06-26T11:01:53;35.60;72.70
14359;DHT22;7263;49.418;11.064;2023-06-26T11:04:46;35.70;71.90
14359;DHT22;7263;49.418;11.064;2023-06-26T11:07:26;35.70;70.00
14359;DHT22;7263;49.418;11.064;2023-06-26T11:09:57;35.80;69.90
14359;DHT22;7263;49.418;11.064;2023-06-26T11:12:47;35.70;69.40
14359;DHT22;7263;49.418;11.064;2023-06-26T11:15:19;35.90;70.40
14359;DHT22;7263;49.418;11.064;2023-06-26T11:17:52;36.00;69.00
14359;DHT22;7263;49.418;11.064;2023-06-26T11:20:21;36.10;70.00
14359;DHT22;7263;49.418;11.064;2023-06-26T11:22:52;36.00;67.90
14359;DHT22;7263;49.418;11.064;2023-06-26T11:25:24;33.70;67.70
14359;DHT22;7263;49.418;11.064;2023-06-26T11:27:53;35.50;66.90
14359;DHT22;7263;49.418;11.064;2023-06-26T11:30:24;35.60;68.90
14359;DHT22;7263;49.418;11.064;2023-06-26T11:33:02;35.70;68.50
14359;DHT22;7263;49.418;11.064;2023-06-26T11:35:43;35.60;65.40
14359;DHT22;7263;49.418;11.064;2023-06-26T11:38:12;35.60;68.70
14359;DHT22;7263;49.418;11.064;2023-06-26T11:40:39;35.60;67.30
14359;DHT22;7263;49.418;11.064;2023-06-26T11:43:06;35.70;68.40
14359;DHT22;7263;49.418;11.064;2023-06-26T11:45:38;35.70;67.40
14359;DHT22;7263;49.418;11.064;2023-06-26T11:48:06;35.60;67.80
14359;DHT22;7263;49.418;11.064;2023-06-26T11:50:37;35.70;68.10
14359;DHT22;7263;49.418;11.064;2023-06-26T11:53:04;35.40;68.50
14359;DHT22;7263;49.418;11.064;2023-06-26T11:55:41;35.40;65.90
14359;DHT22;7263;49.418;11.064;2023-06-26T11:58:11;35.40;66.50
14359;DHT22;7263;49.418;11.064;2023-06-26T12:00:49;35.50;68.10
14359;DHT22;7263;49.418;11.064;2023-06-26T12:03:19;35.50;68.10
14359;DHT22;7263;49.418;11.064;2023-06-26T12:05:50;35.30;66.60
14359;DHT22;7263;49.418;11.064;2023-06-26T12:08:22;35.30;66.70
14359;DHT22;7263;49.418;11.064;2023-06-26T12:10:50;35.20;68.20
14359;DHT22;7263;49.418;11.064;2023-06-26T12:13:16;35.30;68.50
14359;DHT22;7263;49.418;11.064;2023-06-26T12:15:49;35.30;66.60
14359;DHT22;7263;49.418;11.064;2023-06-26T12:18:16;35.20;67.20
14359;DHT22;7263;49.418;11.064;2023-06-26T12:20:46;35.20;67.40
14359;DHT22;7263;49.418;11.064;2023-06-26T12:23:14;35.30;68.30
14359;DHT22;7263;49.418;11.064;2023-06-26T12:25:43;35.50;66.30
14359;DHT22;7263;49.418;11.064;2023-06-26T12:28:17;35.40;66.90
14359;DHT22;7263;49.418;11.064;2023-06-26T12:30:47;35.50;67.90
14359;DHT22;7263;49.418;11.064;2023-06-26T12:33:17;35.60;68.40
14359;DHT22;7263;49.418;11.064;2023-06-26T12:35:47;34.80;67.80
14359;DHT22;7263;49.418;11.064;2023-06-26T12:38:17;34.80;68.50
14359;DHT22;7263;49.418;11.064;2023-06-26T12:40:46;34.50;67.70
14359;DHT22;7263;49.418;11.064;2023-06-26T12:43:26;34.30;69.30
14359;DHT22;7263;49.418;11.064;2023-06-26T12:46:00;33.90;68.50
14359;DHT22;7263;49.418;11.064;2023-06-26T12:48:37;33.90;68.20
14359;DHT22;7263;49.418;11.064;2023-06-26T12:51:11;34.10;70.00
14359;DHT22;7263;49.418;11.064;2023-06-26T12:53:42;34.10;68.00
14359;DHT22;7263;49.418;11.064;2023-06-26T12:56:21;34.00;68.70
14359;DHT22;7263;49.418;11.064;2023-06-26T12:58:51;34.00;69.30
14359;DHT22;7263;49.418;11.064;2023-06-26T13:01:17;33.80;68.10
14359;DHT22;7263;49.418;11.064;2023-06-26T13:03:53;33.60;70.00
14359;DHT22;7263;49.418;11.064;2023-06-26T13:06:25;33.60;70.20
14359;DHT22;7263;49.418;11.064;2023-06-26T13:08:53;33.60;71.20
14359;DHT22;7263;49.418;11.064;2023-06-26T13:11:25;33.60;72.00
14359;DHT22;7263;49.418;11.064;2023-06-26T13:13:54;33.60;71.70
14359;DHT22;7263;49.418;11.064;2023-06-26T13:16:24;33.40;70.50
14359;DHT22;7263;49.418;11.064;2023-06-26T13:18:54;33.30;71.10
14359;DHT22;7263;49.418;11.064;2023-06-26T13:21:28;33.10;70.90
14359;DHT22;7263;49.418;11.064;2023-06-26T13:23:59;32.80;72.40
14359;DHT22;7263;49.418;11.064;2023-06-26T13:26:32;32.40;73.10
14359;DHT22;7263;49.418;11.064;2023-06-26T13:28:59;32.40;73.40
14359;DHT22;7263;49.418;11.064;2023-06-26T13:31:31;32.50;75.00
14359;DHT22;7263;49.418;11.064;2023-06-26T13:34:04;32.60;75.60
14359;DHT22;7263;49.418;11.064;2023-06-26T13:36:34;32.60;74.40
14359;DHT22;7263;49.418;11.064;2023-06-26T13:39:02;32.00;74.30
14359;DHT22;7263;49.418;11.064;2023-06-26T13:41:39;32.50;74.90
14359;DHT22;7263;49.418;11.064;2023-06-26T13:44:08;32.40;74.40
14359;DHT22;7263;49.418;11.064;2023-06-26T13:46:43;32.10;75.00
14359;DHT22;7263;49.418;11.064;2023-06-26T13:49:10;32.00;76.00
14359;DHT22;7263;49.418;11.064;2023-06-26T13:51:39;32.00;76.60
14359;DHT22;7263;49.418;11.064;2023-06-26T13:54:12;32.20;78.10
14359;DHT22;7263;49.418;11.064;2023-06-26T13:56:53;32.20;76.10
14359;DHT22;7263;49.418;11.064;2023-06-26T13:59:23;28.00;74.30
14359;DHT22;7263;49.418;11.064;2023-06-26T14:01:53;32.00;77.70
14359;DHT22;7263;49.418;11.064;2023-06-26T14:04:20;32.00;78.00
14359;DHT22;7263;49.418;11.064;2023-06-26T14:06:47;32.00;77.60
14359;DHT22;7263;49.418;11.064;2023-06-26T14:09:20;32.00;79.20
14359;DHT22;7263;49.418;11.064;2023-06-26T14:11:50;31.90;79.00
14359;DHT22;7263;49.418;11.064;2023-06-26T14:14:17;31.90;78.60
14359;DHT22;7263;49.418;11.064;2023-06-26T14:16:58;31.90;78.70
14359;DHT22;7263;49.418;11.064;2023-06-26T14:19:25;31.90;79.60
14359;DHT22;7263;49.418;11.064;2023-06-26T14:22:00;32.00;79.20
14359;DHT22;7263;49.418;11.064;2023-06-26T14:24:42;32.00;79.00
14359;DHT22;7263;49.418;11.064;2023-06-26T14:27:09;32.10;77.70
14359;DHT22;7263;49.418;11.064;2023-06-26T14:29:36;32.00;77.90
14359;DHT22;7263;49.418;11.064;2023-06-26T14:32:07;32.00;78.00
14359;DHT22;7263;49.418;11.064;2023-06-26T14:34:36;31.90;78.10
14359;DHT22;7263;49.418;11.064;2023-06-26T14:37:05;31.80;77.30
14359;DHT22;7263;49.418;11.064;2023-06-26T14:39:32;31.80;79.10
14359;DHT22;7263;49.418;11.064;2023-06-26T14:42:00;31.90;79.30
14359;DHT22;7263;49.418;11.064;2023-06-26T14:44:33;31.90;80.40
14359;DHT22;7263;49.418;11.064;2023-06-26T14:47:05;31.90;78.80
14359;DHT22;7263;49.418;11.064;2023-06-26T14:49:38;31.90;79.50
14359;DHT22;7263;49.418;11.064;2023-06-26T14:52:08;31.90;80.90
14359;DHT22;7263;49.418;11.064;2023-06-26T14:54:39;32.00;80.00
14359;DHT22;7263;49.418;11.064;2023-06-26T14:57:12;31.90;79.80
14359;DHT22;7263;49.418;11.064;2023-06-26T14:59:39;32.00;81.10
14359;DHT22;7263;49.418;11.064;2023-06-26T15:02:08;32.00;79.40
14359;DHT22;7263;49.418;11.064;2023-06-26T15:04:38;32.10;80.00
14359;DHT22;7263;49.418;11.064;2023-06-26T15:07:25;32.00;79.60
14359;DHT22;7263;49.418;11.064;2023-06-26T15:09:55;32.00;80.40
14359;DHT22;7263;49.418;11.064;2023-06-26T15:12:23;32.00;80.40
14359;DHT22;7263;49.418;11.064;2023-06-26T15:14:52;32.00;81.30
14359;DHT22;7263;49.418;11.064;2023-06-26T15:17:19;32.00;80.50
14359;DHT22;7263;49.418;11.064;2023-06-26T15:19:56;32.00;81.30
14359;DHT22;7263;49.418;11.064;2023-06-26T15:22:26;32.00;82.10
14359;DHT22;7263;49.418;11.064;2023-06-26T15:24:58;32.00;82.20
14359;DHT22;7263;49.418;11.064;2023-06-26T15:27:26;32.00;83.60
14359;DHT22;7263;49.418;11.064;2023-06-26T15:29:54;32.00;84.30
14359;DHT22;7263;49.418;11.064;2023-06-26T15:32:21;32.10;84.00
14359;DHT22;7263;49.418;11.064;2023-06-26T15:34:50;32.00;85.00
14359;DHT22;7263;49.418;11.064;2023-06-26T15:37:21;31.50;85.30
14359;DHT22;7263;49.418;11.064;2023-06-26T15:39:50;31.30;86.10
14359;DHT22;7263;49.418;11.064;2023-06-26T15:42:17;30.90;86.40
14359;DHT22;7263;49.418;11.064;2023-06-26T15:44:51;30.70;87.80
14359;DHT22;7263;49.418;11.064;2023-06-26T15:47:19;30.20;88.20
14359;DHT22;7263;49.418;11.064;2023-06-26T15:49:57;30.10;89.40
14359;DHT22;7263;49.418;11.064;2023-06-26T15:52:24;30.00;90.20
14359;DHT22;7263;49.418;11.064;2023-06-26T15:54:52;29.80;89.80
14359;DHT22;7263;49.418;11.064;2023-06-26T15:57:19;29.70;90.20
14359;DHT22;7263;49.418;11.064;2023-06-26T15:59:52;29.70;90.20
14359;DHT22;7263;49.418;11.064;2023-06-26T16:02:19;29.60;90.50
14359;DHT22;7263;49.418;11.064;2023-06-26T16:04:52;29.50;90.40
14359;DHT22;7263;49.418;11.064;2023-06-26T16:07:18;29.40;90.40
14359;DHT22;7263;49.418;11.064;2023-06-26T16:09:51;29.40;90.70
14359;DHT22;7263;49.418;11.064;2023-06-26T16:12:20;29.30;91.00
14359;DHT22;7263;49.418;11.064;2023-06-26T16:14:48;29.30;91.20
14359;DHT22;7263;49.418;11.064;2023-06-26T16:17:15;29.20;91.40
14359;DHT22;7263;49.418;11.064;2023-06-26T16:19:52;29.10;91.50
14359;DHT22;7263;49.418;11.064;2023-06-26T16:22:22;29.10;91.90
14359;DHT22;7263;49.418;11.064;2023-06-26T16:24:59;29.10;92.10
14359;DHT22;7263;49.418;11.064;2023-06-26T16:27:26;29.00;91.70
14359;DHT22;7263;49.418;11.064;2023-06-26T16:30:00;29.00;92.20
14359;DHT22;7263;49.418;11.064;2023-06-26T16:32:49;29.00;91.80
14359;DHT22;7263;49.418;11.064;2023-06-26T16:35:27;28.90;92.40
14359;DHT22;7263;49.418;11.064;2023-06-26T16:38:02;28.90;92.60
14359;DHT22;7263;49.418;11.064;2023-06-26T16:40:34;29.00;92.80
14359;DHT22;7263;49.418;11.064;2023-06-26T16:43:07;29.00;92.30
14359;DHT22;7263;49.418;11.064;2023-06-26T16:45:36;28.90;92.60
14359;DHT22;7263;49.418;11.064;2023-06-26T16:48:03;28.90;92.00
14359;DHT22;7263;49.418;11.064;2023-06-26T16:50:30;28.90;92.30
14359;DHT22;7263;49.418;11.064;2023-06-26T16:52:57;28.90;92.30
14359;DHT22;7263;49.418;11.064;2023-06-26T16:55:24;28.90;91.50
14359;DHT22;7263;49.418;11.064;2023-06-26T17:00:21;28.90;90.80
14359;DHT22;7263;49.418;11.064;2023-06-26T17:02:49;28.90;91.30
14359;DHT22;7263;49.418;11.064;2023-06-26T17:05:16;28.90;90.70
14359;DHT22;7263;49.418;11.064;2023-06-26T17:07:43;28.90;89.50
14359;DHT22;7263;49.418;11.064;2023-06-26T17:10:12;28.80;90.10
14359;DHT22;7263;49.418;11.064;2023-06-26T17:12:39;28.70;90.30
14359;DHT22;7263;49.418;11.064;2023-06-26T17:15:08;28.70;90.30
14359;DHT22;7263;49.418;11.064;2023-06-26T17:17:34;28.70;90.30
14359;DHT22;7263;49.418;11.064;2023-06-26T17:20:04;28.70;91.00
14359;DHT22;7263;49.418;11.064;2023-06-26T17:22:34;28.60;90.30
14359;DHT22;7263;49.418;11.064;2023-06-26T17:25:01;28.70;90.60
14359;DHT22;7263;49.418;11.064;2023-06-26T17:27:30;28.60;90.60
14359;DHT22;7263;49.418;11.064;2023-06-26T17:29:57;28.50;91.30
14359;DHT22;7263;49.418;11.064;2023-06-26T17:32:24;28.40;91.30
14359;DHT22;7263;49.418;11.064;2023-06-26T17:34:50;28.20;91.50
14359;DHT22;7263;49.418;11.064;2023-06-26T17:37:20;28.10;91.30
14359;DHT22;7263;49.418;11.064;2023-06-26T17:39:48;28.00;91.70
14359;DHT22;7263;49.418;11.064;2023-06-26T17:42:15;28.00;91.80
14359;DHT22;7263;49.418;11.064;2023-06-26T17:44:44;27.90;91.50
14359;DHT22;7263;49.418;11.064;2023-06-26T17:47:11;27.80;91.20
14359;DHT22;7263;49.418;11.064;2023-06-26T17:49:38;27.70;91.70
14359;DHT22;7263;49.418;11.064;2023-06-26T17:52:06;27.70;92.40
14359;DHT22;7263;49.418;11.064;2023-06-26T17:54:35;27.60;92.60
14359;DHT22;7263;49.418;11.064;2023-06-26T17:57:01;27.40;92.70
14359;DHT22;7263;49.418;11.064;2023-06-26T17:59:28;27.30;93.10
14359;DHT22;7263;49.418;11.064;2023-06-26T18:01:55;27.10;93.10
14359;DHT22;7263;49.418;11.064;2023-06-26T18:04:24;27.00;93.40
14359;DHT22;7263;49.418;11.064;2023-06-26T18:06:51;26.80;93.40
14359;DHT22;7263;49.418;11.064;2023-06-26T18:09:18;26.80;94.00
14359;DHT22;7263;49.418;11.064;2023-06-26T18:11:46;26.70;94.20
14359;DHT22;7263;49.418;11.064;2023-06-26T18:14:13;26.60;94.00
14359;DHT22;7263;49.418;11.064;2023-06-26T18:16:40;26.50;93.60
14359;DHT22;7263;49.418;11.064;2023-06-26T18:19:07;26.40;94.00